Stad Amsterdam — PECA — position and weather

sailwx.info

Track history (hours):
 
Tides and Currents Weather Stations Pressure Air Temp Water Temp Dewpoint Dewpoint Depression Visibility Wind Speed Wind Dir Waves Ship Positions

Stad Amsterdam (Netherlands)

Ship's website: http://www.stadamsterdam.com/content/home/index.xml

Last reported at 2017-Sep-20 00:29 UTC. Time now 2017-Sep-20 00:34 UTC.
Position N 53°33' E 009°59'.

Length 76 m; beam 10 m.

Type: Sailing vessel. MMSI: 246494000.

Date/timePositionNaut miles runAvg speedWind from/ knotsBaromVisibWave heightAir tempDewpointWater temp
2017-Sep-20 00:29N 53°33' E 009°59'0 0.0
2017-Sep-19 23:59N 53°33' E 009°59'0 0.0
2017-Sep-19 23:29N 53°33' E 009°59'0 0.0
2017-Sep-19 22:59N 53°33' E 009°59'0 0.0
2017-Sep-19 22:29N 53°33' E 009°59'0 0.0
2017-Sep-19 21:59N 53°33' E 009°59'0 0.0
2017-Sep-19 21:29N 53°33' E 009°59'0 0.0
2017-Sep-19 20:59N 53°33' E 009°59'0 0.0
2017-Sep-19 20:29N 53°33' E 009°59'0 0.0
2017-Sep-19 19:59N 53°33' E 009°59'0 0.0
2017-Sep-19 19:29N 53°33' E 009°59'0 0.0
2017-Sep-19 18:59N 53°33' E 009°59'0 0.0
2017-Sep-19 18:29N 53°33' E 009°59'0 0.0
2017-Sep-19 17:59N 53°33' E 009°59'0 0.0
2017-Sep-19 17:29N 53°33' E 009°59'0 0.0
2017-Sep-19 16:59N 53°33' E 009°59'0 0.0
2017-Sep-19 16:29N 53°33' E 009°59'0 0.0
2017-Sep-19 15:59N 53°33' E 009°59'0 0.0
2017-Sep-19 15:29N 53°33' E 009°59'0 0.0
2017-Sep-19 15:00N 53°33' E 009°59'0 0.5
2017-Sep-19 14:30N 53°33' E 009°58'3 6.6
2017-Sep-19 14:00N 53°32' E 009°53'3 6.2
2017-Sep-19 13:30N 53°33' E 009°48'3 6.5
2017-Sep-19 13:00N 53°34' E 009°42'1 1.8
2017-Sep-19 12:30N 53°34' E 009°41'3 6.6
2017-Sep-19 12:00N 53°34' E 009°46'3 6.6
2017-Sep-19 11:30N 53°33' E 009°52'3 5.7
2017-Sep-19 11:00N 53°33' E 009°56'1 2.7
2017-Sep-19 10:30N 53°33' E 009°59'0 0.0
2017-Sep-19 10:00N 53°33' E 009°59'0 0.0
2017-Sep-19 09:30N 53°33' E 009°59'0 0.0
2017-Sep-19 09:00N 53°33' E 009°59'0 0.0
2017-Sep-19 08:30N 53°33' E 009°59'0 0.0
2017-Sep-19 08:00N 53°33' E 009°59'0 0.0
2017-Sep-19 07:30N 53°33' E 009°59'0 0.3
2017-Sep-19 07:00N 53°33' E 009°58'3 5.9
2017-Sep-19 06:30N 53°32' E 009°53'3 6.4
2017-Sep-19 06:00N 53°33' E 009°48'3 6.5
2017-Sep-19 05:30N 53°34' E 009°43'3 6.5
2017-Sep-19 05:00N 53°35' E 009°38'3 5.9
2017-Sep-19 04:31N 53°37' E 009°34'1 1.8
2017-Sep-19 03:58N 53°37' E 009°32'0 0.0
2017-Sep-19 03:28N 53°37' E 009°32'0 0.0
2017-Sep-19 02:59N 53°37' E 009°32'0 0.2
2017-Sep-19 02:30N 53°37' E 009°32'0 0.0
2017-Sep-19 02:01N 53°37' E 009°32'0 0.0
2017-Sep-19 01:30N 53°37' E 009°32'0 0.0
2017-Sep-19 01:00N 53°37' E 009°33'0 0.0
2017-Sep-19 00:30N 53°37' E 009°33'0 0.0
2017-Sep-19 00:00N 53°37' E 009°33'0 0.0
2017-Sep-18 23:31N 53°37' E 009°33'0 0.0
2017-Sep-18 23:00N 53°37' E 009°33'0 0.0
2017-Sep-18 22:30N 53°37' E 009°33'0 0.1
2017-Sep-18 22:00N 53°37' E 009°33'0 0.0
2017-Sep-18 21:30N 53°37' E 009°33'0 0.0
2017-Sep-18 21:00N 53°37' E 009°33'0 0.1
2017-Sep-18 20:30N 53°37' E 009°32'0 0.0
2017-Sep-18 20:00N 53°37' E 009°32'0 0.0
2017-Sep-18 19:30N 53°37' E 009°32'0 0.0
2017-Sep-18 19:00N 53°37' E 009°32'0 0.0
2017-Sep-18 18:30N 53°37' E 009°32'0 0.0
2017-Sep-18 18:00N 53°37' E 009°32'0 0.0
2017-Sep-18 17:30N 53°37' E 009°32'1 2.5
2017-Sep-18 17:00N 53°38' E 009°31'3 6.2
2017-Sep-18 16:30N 53°41' E 009°30'3 6.7
2017-Sep-18 16:00N 53°38' E 009°32'4 8.5
2017-Sep-18 15:30N 53°35' E 009°37'4 7.5
2017-Sep-18 15:00N 53°34' E 009°43'3 6.7
2017-Sep-18 14:30N 53°33' E 009°48'3 6.0
2017-Sep-18 14:00N 53°33' E 009°53'3 5.3
2017-Sep-18 13:31N 53°33' E 009°58'1 1.1
2017-Sep-18 13:00N 53°33' E 009°59'0 0.0
2017-Sep-18 12:30N 53°33' E 009°59'0 0.0
2017-Sep-18 12:00N 53°33' E 009°59'0 0.0
2017-Sep-18 11:30N 53°33' E 009°59'0 0.0
2017-Sep-18 11:00N 53°33' E 009°59'0 0.0
2017-Sep-18 10:30N 53°33' E 009°59'0 0.0
2017-Sep-18 10:00N 53°33' E 009°59'0 1.0
2017-Sep-18 09:31N 53°32' E 009°59'3 5.4
2017-Sep-18 09:01N 53°32' E 009°55'3 6.9
2017-Sep-18 08:30N 53°33' E 009°49'3 5.8
2017-Sep-18 08:01N 53°34' E 009°44'3 5.3
2017-Sep-18 07:31N 53°34' E 009°40'3 6.0
2017-Sep-18 07:00N 53°36' E 009°36'3 5.6
2017-Sep-18 06:31N 53°37' E 009°32'3 5.8
2017-Sep-18 06:00N 53°40' E 009°30'3 5.9
2017-Sep-18 05:30N 53°43' E 009°28'3 5.7
2017-Sep-18 05:01N 53°45' E 009°25'3 5.2
2017-Sep-18 04:30N 53°47' E 009°23'0 0.1
2017-Sep-18 04:00N 53°47' E 009°23'0 0.0
2017-Sep-18 03:24N 53°47' E 009°23'0 0.0
2017-Sep-18 02:57N 53°47' E 009°23'0 0.0
2017-Sep-18 02:30N 53°47' E 009°23'0 0.0
2017-Sep-18 02:00N 53°47' E 009°23'0 0.0
2017-Sep-18 01:27N 53°47' E 009°23'0 0.1
2017-Sep-18 00:57N 53°47' E 009°23'0 0.0
2017-Sep-18 00:27N 53°47' E 009°23'0 0.0
2017-Sep-18 00:00N 53°47' E 009°23'0 0.0
2017-Sep-17 23:27N 53°47' E 009°23'0 0.0
2017-Sep-17 23:00N 53°47' E 009°23'0 0.1
2017-Sep-17 22:27N 53°47' E 009°23'0 0.0
2017-Sep-17 21:57N 53°47' E 009°23'0 0.0
2017-Sep-17 21:24N 53°47' E 009°23'0 0.1
2017-Sep-17 20:57N 53°47' E 009°23'0 0.0
2017-Sep-17 20:27N 53°47' E 009°23'0 0.0
2017-Sep-17 19:57N 53°47' E 009°23'0 0.0
2017-Sep-17 19:30N 53°47' E 009°23'0 0.1
2017-Sep-17 19:00N 53°47' E 009°23'0 0.0
2017-Sep-17 18:30N 53°47' E 009°23'0 0.0
2017-Sep-17 17:54N 53°47' E 009°23'0 0.0
2017-Sep-17 17:30N 53°47' E 009°23'0 0.1
2017-Sep-17 17:00N 53°47' E 009°23'2 4.8
2017-Sep-17 16:30N 53°50' E 009°22'3 5.7
2017-Sep-17 16:00N 53°47' E 009°24'4 7.1
2017-Sep-17 15:30N 53°44' E 009°27'3 6.1
2017-Sep-17 15:00N 53°41' E 009°30'3 6.6
2017-Sep-17 14:30N 53°38' E 009°32'4 7.0
2017-Sep-17 14:00N 53°36' E 009°36'3 6.2
2017-Sep-17 13:30N 53°34' E 009°40'3 6.8
2017-Sep-17 13:00N 53°34' E 009°46'3 5.8
2017-Sep-17 12:30N 53°33' E 009°51'3 5.4
2017-Sep-17 12:00N 53°33' E 009°55'2 4.2
2017-Sep-17 11:30N 53°33' E 009°59'0 0.0
2017-Sep-17 11:00N 53°33' E 009°59'0 0.0
2017-Sep-17 10:30N 53°33' E 009°59'0 0.0
2017-Sep-17 10:00N 53°33' E 009°59'0 0.0
2017-Sep-17 09:30N 53°33' E 009°59'0 0.0
2017-Sep-17 09:00N 53°33' E 009°59'0 0.0
2017-Sep-17 08:30N 53°33' E 009°59'0 0.0
2017-Sep-17 08:00N 53°33' E 009°59'0 0.0
2017-Sep-17 07:24N 53°33' E 009°59'0 0.0
2017-Sep-17 07:00N 53°33' E 009°59'0 0.0
2017-Sep-17 06:30N 53°33' E 009°59'0 0.0
2017-Sep-17 06:00N 53°33' E 009°59'0 0.0
2017-Sep-17 05:30N 53°33' E 009°59'0 0.0
2017-Sep-17 05:00N 53°33' E 009°59'0 0.0
2017-Sep-17 04:30N 53°33' E 009°59'0 0.0
2017-Sep-17 04:00N 53°33' E 009°59'0 0.0
2017-Sep-17 03:30N 53°33' E 009°59'0 0.0
2017-Sep-17 03:00N 53°33' E 009°59'0 0.0
2017-Sep-17 02:30N 53°33' E 009°59'0 0.0
2017-Sep-17 02:00N 53°33' E 009°59'0 0.0
2017-Sep-17 01:30N 53°33' E 009°59'0 0.0
2017-Sep-17 01:00N 53°33' E 009°59'0 0.0
2017-Sep-17 00:30N 53°33' E 009°59'0 0.0
2017-Sep-17 00:00N 53°33' E 009°59'0 0.0
2017-Sep-16 23:30N 53°33' E 009°59'0 0.0
2017-Sep-16 23:00N 53°33' E 009°59'0 0.0
2017-Sep-16 22:30N 53°33' E 009°59'0 0.0
2017-Sep-16 22:00N 53°33' E 009°59'0 0.0
2017-Sep-16 21:30N 53°33' E 009°59'0 0.0
2017-Sep-16 21:00N 53°33' E 009°59'0 0.0
2017-Sep-16 20:30N 53°33' E 009°59'0 0.0
2017-Sep-16 20:00N 53°33' E 009°59'0 0.0
2017-Sep-16 19:30N 53°33' E 009°59'0 0.0
2017-Sep-16 19:00N 53°33' E 009°59'0 0.0
2017-Sep-16 18:30N 53°33' E 009°59'0 0.0
2017-Sep-16 18:00N 53°33' E 009°59'0 0.0
2017-Sep-16 17:30N 53°33' E 009°59'0 0.0
2017-Sep-16 17:00N 53°33' E 009°59'0 0.0
2017-Sep-16 16:30N 53°33' E 009°59'0 0.0
2017-Sep-16 16:00N 53°33' E 009°59'0 0.0
2017-Sep-16 15:30N 53°33' E 009°59'0 0.0
2017-Sep-16 15:00N 53°33' E 009°59'0 0.0
2017-Sep-16 14:30N 53°33' E 009°59'0 0.0
2017-Sep-16 14:00N 53°33' E 009°59'0 0.0
2017-Sep-16 13:30N 53°33' E 009°59'0 0.0
2017-Sep-16 13:00N 53°33' E 009°59'0 0.0
2017-Sep-16 12:30N 53°33' E 009°59'0 0.0
2017-Sep-16 12:00N 53°33' E 009°59'0 0.0
2017-Sep-16 11:30N 53°33' E 009°59'0 0.0
2017-Sep-16 10:54N 53°33' E 009°59'0 0.0
2017-Sep-16 10:30N 53°33' E 009°59'0 0.0
2017-Sep-16 10:00N 53°33' E 009°59'0 0.0
2017-Sep-16 09:30N 53°33' E 009°59'0 0.0
2017-Sep-16 09:00N 53°33' E 009°59'0 0.0
2017-Sep-16 08:30N 53°33' E 009°59'0 0.0
2017-Sep-16 08:00N 53°33' E 009°59'0 0.0
2017-Sep-16 07:30N 53°33' E 009°59'0 0.0
2017-Sep-16 07:00N 53°33' E 009°59'0 0.0
2017-Sep-16 06:30N 53°33' E 009°59'0 0.0
2017-Sep-16 06:00N 53°33' E 009°59'0 0.0
2017-Sep-16 05:30N 53°33' E 009°59'0 0.0
2017-Sep-16 05:00N 53°33' E 009°59'0 0.0
2017-Sep-16 04:30N 53°33' E 009°59'0 0.0
2017-Sep-16 04:00N 53°33' E 009°59'0 0.0
2017-Sep-16 03:30N 53°33' E 009°59'0 0.0
2017-Sep-16 03:00N 53°33' E 009°59'0 0.0
2017-Sep-16 02:30N 53°33' E 009°59'0 0.0
2017-Sep-16 02:00N 53°33' E 009°59'0 0.0
2017-Sep-16 01:30N 53°33' E 009°59'0 0.0
2017-Sep-16 01:00N 53°33' E 009°59'0 0.0
2017-Sep-16 00:30N 53°33' E 009°59'0 0.0
2017-Sep-16 00:00N 53°33' E 009°59'0 0.0
2017-Sep-15 23:30N 53°33' E 009°59'0 0.0
2017-Sep-15 23:00N 53°33' E 009°59'0 0.0
2017-Sep-15 22:30N 53°33' E 009°59'0 0.0
2017-Sep-15 22:00N 53°33' E 009°59'0 0.0
2017-Sep-15 21:30N 53°33' E 009°59'0 0.0
2017-Sep-15 21:00N 53°33' E 009°59'0 0.0
2017-Sep-15 20:30N 53°33' E 009°59'0 0.0
2017-Sep-15 20:00N 53°33' E 009°59'0 0.0
2017-Sep-15 19:30N 53°33' E 009°59'0 0.0
2017-Sep-15 19:00N 53°33' E 009°59'0 0.0
2017-Sep-15 18:30N 53°33' E 009°59'0 0.0
2017-Sep-15 18:00N 53°33' E 009°59'0 0.0
2017-Sep-15 17:30N 53°33' E 009°59'0 0.0
2017-Sep-15 17:00N 53°33' E 009°59'0 0.0
2017-Sep-15 16:30N 53°33' E 009°59'0 0.0
2017-Sep-15 16:00N 53°33' E 009°59'0 0.0
2017-Sep-15 15:30N 53°33' E 009°59'0 0.0
2017-Sep-15 15:00N 53°33' E 009°59'0 0.0
2017-Sep-15 14:30N 53°33' E 009°59'0 0.0
2017-Sep-15 14:00N 53°33' E 009°59'0 0.0
2017-Sep-15 13:30N 53°33' E 009°59'0 0.0
2017-Sep-15 13:00N 53°33' E 009°59'0 0.0
2017-Sep-15 12:30N 53°33' E 009°59'0 0.0
2017-Sep-15 12:00N 53°33' E 009°59'0 0.0
2017-Sep-15 11:27N 53°33' E 009°59'0 0.0
2017-Sep-15 11:00N 53°33' E 009°59'0 0.0
2017-Sep-15 10:27N 53°33' E 009°59'0 0.2
2017-Sep-15 10:01N 53°32' E 009°59'2 4.3
2017-Sep-15 09:31N 53°32' E 009°55'510.4
2017-Sep-15 09:01N 53°33' E 009°47'510.1
2017-Sep-15 08:31N 53°34' E 009°38'510.4
2017-Sep-15 08:01N 53°38' E 009°32'5 9.7
2017-Sep-15 07:30N 53°43' E 009°29'4 7.9
2017-Sep-15 07:00N 53°45' E 009°24'3 6.3
2017-Sep-15 06:30N 53°48' E 009°22'4 7.0
2017-Sep-15 06:00N 53°51' E 009°19'4 8.4
2017-Sep-15 05:31N 53°53' E 009°12'5 9.6
2017-Sep-15 05:01N 53°52' E 009°04'4 8.7
2017-Sep-15 04:30N 53°51' E 008°57'4 7.6
2017-Sep-15 04:00N 53°50' E 008°51'3 7.0
2017-Sep-15 03:30N 53°51' E 008°45'4 7.4
2017-Sep-15 03:00N 53°54' E 008°41'4 8.4
2017-Sep-15 02:30N 53°57' E 008°37'5 9.1
2017-Sep-15 02:00N 53°58' E 008°29'  
2017-Sep-12 14:54N 55°38' W 001°32'4 9.0
2017-Sep-12 14:30N 55°35' W 001°31'5 9.4
2017-Sep-12 14:00N 55°30' W 001°28'4 7.7
2017-Sep-12 13:30N 55°26' W 001°27'4 7.3
2017-Sep-12 13:00N 55°23' W 001°26'4 8.5
2017-Sep-12 12:30N 55°19' W 001°25'4 8.0
2017-Sep-12 12:00N 55°15' W 001°24'4 8.7
2017-Sep-12 11:30N 55°10' W 001°22'4 8.5
2017-Sep-12 11:00N 55°06' W 001°21'4 8.0
2017-Sep-12 10:30N 55°02' W 001°21'3 6.8
2017-Sep-12 10:00N 55°00' W 001°26'1 2.2
2017-Sep-12 09:28N 54°59' W 001°27'0 0.0
2017-Sep-12 08:58N 54°59' W 001°27'0 0.0
2017-Sep-12 08:28N 54°59' W 001°27'0 0.0
2017-Sep-12 07:58N 54°59' W 001°27'0 0.0
2017-Sep-12 07:28N 54°59' W 001°27'0 0.0
2017-Sep-12 06:58N 54°59' W 001°27'0 0.0
2017-Sep-12 06:28N 54°59' W 001°27'0 0.0
2017-Sep-12 05:49N 54°59' W 001°27'0 0.0
2017-Sep-12 05:19N 54°59' W 001°27'0 0.0
2017-Sep-12 04:37N 54°59' W 001°27'0 0.0
2017-Sep-12 04:22N 54°59' W 001°27'0 0.0
2017-Sep-12 03:52N 54°59' W 001°27'0 0.0
2017-Sep-12 03:22N 54°59' W 001°27'0 0.0
2017-Sep-12 02:55N 54°59' W 001°27'0 0.0
2017-Sep-12 02:22N 54°59' W 001°27'0 0.0
2017-Sep-12 01:55N 54°59' W 001°27'0 0.0
2017-Sep-12 01:25N 54°59' W 001°27'0 0.0
2017-Sep-12 00:55N 54°59' W 001°27'0 0.0
2017-Sep-12 00:25N 54°59' W 001°27'0 0.0
2017-Sep-11 23:55N 54°59' W 001°27'0 0.0
2017-Sep-11 23:22N 54°59' W 001°27'0 0.0
2017-Sep-11 22:55N 54°59' W 001°27'0 0.0
2017-Sep-11 22:13N 54°59' W 001°27'0 0.0
2017-Sep-11 21:58N 54°59' W 001°27'0 0.0
2017-Sep-11 21:28N 54°59' W 001°27'0 0.0
2017-Sep-11 20:58N 54°59' W 001°27'0 0.0
2017-Sep-11 20:28N 54°59' W 001°27'0 0.0
2017-Sep-11 19:58N 54°59' W 001°27'0 0.0
2017-Sep-11 19:28N 54°59' W 001°27'0 0.0
2017-Sep-11 18:58N 54°59' W 001°27'0 0.0
2017-Sep-11 18:28N 54°59' W 001°27'0 0.0
2017-Sep-11 17:58N 54°59' W 001°27'0 0.0
2017-Sep-11 17:28N 54°59' W 001°27'0 0.0
2017-Sep-11 16:49N 54°59' W 001°27'0 0.0
2017-Sep-11 16:16N 54°59' W 001°27'0 0.0
2017-Sep-11 15:58N 54°59' W 001°27'0 0.0
2017-Sep-11 15:19N 54°59' W 001°27'0 0.0
2017-Sep-11 14:49N 54°59' W 001°27'0 0.0
2017-Sep-11 14:19N 54°59' W 001°27'0 0.0
2017-Sep-11 13:49N 54°59' W 001°27'0 0.0
2017-Sep-11 13:19N 54°59' W 001°27'0 0.0
2017-Sep-11 12:52N 54°59' W 001°27'0 0.0
2017-Sep-11 12:22N 54°59' W 001°27'0 0.0
2017-Sep-11 11:52N 54°59' W 001°27'0 0.0
2017-Sep-11 11:22N 54°59' W 001°27'0 0.0
2017-Sep-11 10:52N 54°59' W 001°27'0 0.0
2017-Sep-11 10:25N 54°59' W 001°27'0 0.0
2017-Sep-11 09:55N 54°59' W 001°27'0 0.0
2017-Sep-11 09:25N 54°59' W 001°27'0 0.0
2017-Sep-11 08:58N 54°59' W 001°27'0 0.0
2017-Sep-11 08:30N 54°59' W 001°27'1 1.9
2017-Sep-11 08:00N 54°59' W 001°29'3 5.4
2017-Sep-11 07:30N 54°58' W 001°33'1 2.3
2017-Sep-11 06:51N 54°58' W 001°35'0 0.0
2017-Sep-11 06:24N 54°58' W 001°35'0 0.0
2017-Sep-11 05:53N 54°58' W 001°35'0 0.0
2017-Sep-11 05:08N 54°58' W 001°35'0 0.0
2017-Sep-11 04:54N 54°58' W 001°35'0 0.0
2017-Sep-11 04:24N 54°58' W 001°35'0 0.0
2017-Sep-11 03:50N 54°58' W 001°35'0 0.0
2017-Sep-11 03:26N 54°58' W 001°35'0 0.0
2017-Sep-11 02:56N 54°58' W 001°35'0 0.0
2017-Sep-11 02:26N 54°58' W 001°35'0 0.0
2017-Sep-11 01:56N 54°58' W 001°35'0 0.0
2017-Sep-11 01:26N 54°58' W 001°35'0 0.0
2017-Sep-11 01:00N 54°58' W 001°35'0 0.0
2017-Sep-11 00:27N 54°58' W 001°35'0 0.0
2017-Sep-10 23:56N 54°58' W 001°35'0 0.0
2017-Sep-10 23:30N 54°58' W 001°35'0 0.0
2017-Sep-10 22:59N 54°58' W 001°35'0 0.0
2017-Sep-10 22:29N 54°58' W 001°35'0 0.0
2017-Sep-10 21:59N 54°58' W 001°35'0 0.0
2017-Sep-10 21:29N 54°58' W 001°35'0 0.0
2017-Sep-10 20:59N 54°58' W 001°35'0 0.0
2017-Sep-10 20:29N 54°58' W 001°35'0 0.0
2017-Sep-10 19:47N 54°58' W 001°35'0 0.0
2017-Sep-10 19:29N 54°58' W 001°35'0 0.0
2017-Sep-10 18:59N 54°58' W 001°35'0 0.0
2017-Sep-10 18:29N 54°58' W 001°35'0 0.0
2017-Sep-10 17:59N 54°58' W 001°35'0 0.0
2017-Sep-10 17:20N 54°58' W 001°35'0 0.0
2017-Sep-10 16:59N 54°58' W 001°35'0 0.0
2017-Sep-10 16:08N 54°58' W 001°35'0 0.0
2017-Sep-10 15:54N 54°58' W 001°35'0 0.0
2017-Sep-10 15:23N 54°58' W 001°35'0 0.0
2017-Sep-10 14:53N 54°58' W 001°35'2 2.0
2017-Sep-10 14:00N 54°58' W 001°32'3 5.6
2017-Sep-10 13:31N 54°59' W 001°28'3 6.2
2017-Sep-10 13:00N 55°01' W 001°23'1 2.9
2017-Sep-10 12:30N 54°60' W 001°22'1 1.8
2017-Sep-10 12:00N 55°00' W 001°22'2 4.7
2017-Sep-10 11:30N 55°01' W 001°18'3 6.9
2017-Sep-10 11:00N 55°00' W 001°12'2 4.4
2017-Sep-10 10:30N 55°00' W 001°15'3 5.1
2017-Sep-10 10:00N 55°01' W 001°20'2 4.2
2017-Sep-10 09:30N 55°01' W 001°23'3 6.0
2017-Sep-10 09:00N 54°59' W 001°28'3 5.5
2017-Sep-10 08:30N 54°58' W 001°32'2 3.4
2017-Sep-10 07:59N 54°58' W 001°35'0 0.0
2017-Sep-10 07:29N 54°58' W 001°35'0 0.0
2017-Sep-10 07:00N 54°58' W 001°35'0 0.0
2017-Sep-10 06:29N 54°58' W 001°35'0 0.0
2017-Sep-10 05:59N 54°58' W 001°35'0 0.0
2017-Sep-10 05:29N 54°58' W 001°35'0 0.0
2017-Sep-10 04:59N 54°58' W 001°35'0 0.0
2017-Sep-10 04:29N 54°58' W 001°35'0 0.0
2017-Sep-10 03:50N 54°58' W 001°35'0 0.0
2017-Sep-10 03:29N 54°58' W 001°35'0 0.0
2017-Sep-10 02:50N 54°58' W 001°35'0 0.0
2017-Sep-10 02:20N 54°58' W 001°35'0 0.0
2017-Sep-10 01:50N 54°58' W 001°35'0 0.0
2017-Sep-10 01:23N 54°58' W 001°35'0 0.0
2017-Sep-10 00:53N 54°58' W 001°35'  
Track history (hours):
 
Tides and Currents Weather Stations Pressure Air Temp Water Temp Dewpoint Dewpoint Depression Visibility Wind Speed Wind Dir Waves Ship Positions

Stad Amsterdam (Netherlands)

Ship's website: http://www.stadamsterdam.com/content/home/index.xml

Last reported at 2017-Sep-20 00:29 UTC. Time now 2017-Sep-20 00:34 UTC.
Position N 53°33' E 009°59'.

Length 76 m; beam 10 m.

Type: Sailing vessel. MMSI: 246494000.

Date/timePositionNaut miles runAvg speedWind from/ knotsBaromVisibWave heightAir tempDewpointWater temp
2017-Sep-20 00:29N 53°33' E 009°59'0 0.0
2017-Sep-19 23:59N 53°33' E 009°59'0 0.0
2017-Sep-19 23:29N 53°33' E 009°59'0 0.0
2017-Sep-19 22:59N 53°33' E 009°59'0 0.0
2017-Sep-19 22:29N 53°33' E 009°59'0 0.0
2017-Sep-19 21:59N 53°33' E 009°59'0 0.0
2017-Sep-19 21:29N 53°33' E 009°59'0 0.0
2017-Sep-19 20:59N 53°33' E 009°59'0 0.0
2017-Sep-19 20:29N 53°33' E 009°59'0 0.0
2017-Sep-19 19:59N 53°33' E 009°59'0 0.0
2017-Sep-19 19:29N 53°33' E 009°59'0 0.0
2017-Sep-19 18:59N 53°33' E 009°59'0 0.0
2017-Sep-19 18:29N 53°33' E 009°59'0 0.0
2017-Sep-19 17:59N 53°33' E 009°59'0 0.0
2017-Sep-19 17:29N 53°33' E 009°59'0 0.0
2017-Sep-19 16:59N 53°33' E 009°59'0 0.0
2017-Sep-19 16:29N 53°33' E 009°59'0 0.0
2017-Sep-19 15:59N 53°33' E 009°59'0 0.0
2017-Sep-19 15:29N 53°33' E 009°59'0 0.0
2017-Sep-19 15:00N 53°33' E 009°59'0 0.5
2017-Sep-19 14:30N 53°33' E 009°58'3 6.6
2017-Sep-19 14:00N 53°32' E 009°53'3 6.2
2017-Sep-19 13:30N 53°33' E 009°48'3 6.5
2017-Sep-19 13:00N 53°34' E 009°42'1 1.8
2017-Sep-19 12:30N 53°34' E 009°41'3 6.6
2017-Sep-19 12:00N 53°34' E 009°46'3 6.6
2017-Sep-19 11:30N 53°33' E 009°52'3 5.7
2017-Sep-19 11:00N 53°33' E 009°56'1 2.7
2017-Sep-19 10:30N 53°33' E 009°59'0 0.0
2017-Sep-19 10:00N 53°33' E 009°59'0 0.0
2017-Sep-19 09:30N 53°33' E 009°59'0 0.0
2017-Sep-19 09:00N 53°33' E 009°59'0 0.0
2017-Sep-19 08:30N 53°33' E 009°59'0 0.0
2017-Sep-19 08:00N 53°33' E 009°59'0 0.0
2017-Sep-19 07:30N 53°33' E 009°59'0 0.3
2017-Sep-19 07:00N 53°33' E 009°58'3 5.9
2017-Sep-19 06:30N 53°32' E 009°53'3 6.4
2017-Sep-19 06:00N 53°33' E 009°48'3 6.5
2017-Sep-19 05:30N 53°34' E 009°43'3 6.5
2017-Sep-19 05:00N 53°35' E 009°38'3 5.9
2017-Sep-19 04:31N 53°37' E 009°34'1 1.8
2017-Sep-19 03:58N 53°37' E 009°32'0 0.0
2017-Sep-19 03:28N 53°37' E 009°32'0 0.0
2017-Sep-19 02:59N 53°37' E 009°32'0 0.2
2017-Sep-19 02:30N 53°37' E 009°32'0 0.0
2017-Sep-19 02:01N 53°37' E 009°32'0 0.0
2017-Sep-19 01:30N 53°37' E 009°32'0 0.0
2017-Sep-19 01:00N 53°37' E 009°33'0 0.0
2017-Sep-19 00:30N 53°37' E 009°33'0 0.0
2017-Sep-19 00:00N 53°37' E 009°33'0 0.0
2017-Sep-18 23:31N 53°37' E 009°33'0 0.0
2017-Sep-18 23:00N 53°37' E 009°33'0 0.0
2017-Sep-18 22:30N 53°37' E 009°33'0 0.1
2017-Sep-18 22:00N 53°37' E 009°33'0 0.0
2017-Sep-18 21:30N 53°37' E 009°33'0 0.0
2017-Sep-18 21:00N 53°37' E 009°33'0 0.1
2017-Sep-18 20:30N 53°37' E 009°32'0 0.0
2017-Sep-18 20:00N 53°37' E 009°32'0 0.0
2017-Sep-18 19:30N 53°37' E 009°32'0 0.0
2017-Sep-18 19:00N 53°37' E 009°32'0 0.0
2017-Sep-18 18:30N 53°37' E 009°32'0 0.0
2017-Sep-18 18:00N 53°37' E 009°32'0 0.0
2017-Sep-18 17:30N 53°37' E 009°32'1 2.5
2017-Sep-18 17:00N 53°38' E 009°31'3 6.2
2017-Sep-18 16:30N 53°41' E 009°30'3 6.7
2017-Sep-18 16:00N 53°38' E 009°32'4 8.5
2017-Sep-18 15:30N 53°35' E 009°37'4 7.5
2017-Sep-18 15:00N 53°34' E 009°43'3 6.7
2017-Sep-18 14:30N 53°33' E 009°48'3 6.0
2017-Sep-18 14:00N 53°33' E 009°53'3 5.3
2017-Sep-18 13:31N 53°33' E 009°58'1 1.1
2017-Sep-18 13:00N 53°33' E 009°59'0 0.0
2017-Sep-18 12:30N 53°33' E 009°59'0 0.0
2017-Sep-18 12:00N 53°33' E 009°59'0 0.0
2017-Sep-18 11:30N 53°33' E 009°59'0 0.0
2017-Sep-18 11:00N 53°33' E 009°59'0 0.0
2017-Sep-18 10:30N 53°33' E 009°59'0 0.0
2017-Sep-18 10:00N 53°33' E 009°59'0 1.0
2017-Sep-18 09:31N 53°32' E 009°59'3 5.4
2017-Sep-18 09:01N 53°32' E 009°55'3 6.9
2017-Sep-18 08:30N 53°33' E 009°49'3 5.8
2017-Sep-18 08:01N 53°34' E 009°44'3 5.3
2017-Sep-18 07:31N 53°34' E 009°40'3 6.0
2017-Sep-18 07:00N 53°36' E 009°36'3 5.6
2017-Sep-18 06:31N 53°37' E 009°32'3 5.8
2017-Sep-18 06:00N 53°40' E 009°30'3 5.9
2017-Sep-18 05:30N 53°43' E 009°28'3 5.7
2017-Sep-18 05:01N 53°45' E 009°25'3 5.2
2017-Sep-18 04:30N 53°47' E 009°23'0 0.1
2017-Sep-18 04:00N 53°47' E 009°23'0 0.0
2017-Sep-18 03:24N 53°47' E 009°23'0 0.0
2017-Sep-18 02:57N 53°47' E 009°23'0 0.0
2017-Sep-18 02:30N 53°47' E 009°23'0 0.0
2017-Sep-18 02:00N 53°47' E 009°23'0 0.0
2017-Sep-18 01:27N 53°47' E 009°23'0 0.1
2017-Sep-18 00:57N 53°47' E 009°23'0 0.0
2017-Sep-18 00:27N 53°47' E 009°23'0 0.0
2017-Sep-18 00:00N 53°47' E 009°23'0 0.0
2017-Sep-17 23:27N 53°47' E 009°23'0 0.0
2017-Sep-17 23:00N 53°47' E 009°23'0 0.1
2017-Sep-17 22:27N 53°47' E 009°23'0 0.0
2017-Sep-17 21:57N 53°47' E 009°23'0 0.0
2017-Sep-17 21:24N 53°47' E 009°23'0 0.1
2017-Sep-17 20:57N 53°47' E 009°23'0 0.0
2017-Sep-17 20:27N 53°47' E 009°23'0 0.0
2017-Sep-17 19:57N 53°47' E 009°23'0 0.0
2017-Sep-17 19:30N 53°47' E 009°23'0 0.1
2017-Sep-17 19:00N 53°47' E 009°23'0 0.0
2017-Sep-17 18:30N 53°47' E 009°23'0 0.0
2017-Sep-17 17:54N 53°47' E 009°23'0 0.0
2017-Sep-17 17:30N 53°47' E 009°23'0 0.1
2017-Sep-17 17:00N 53°47' E 009°23'2 4.8
2017-Sep-17 16:30N 53°50' E 009°22'3 5.7
2017-Sep-17 16:00N 53°47' E 009°24'4 7.1
2017-Sep-17 15:30N 53°44' E 009°27'3 6.1
2017-Sep-17 15:00N 53°41' E 009°30'3 6.6
2017-Sep-17 14:30N 53°38' E 009°32'4 7.0
2017-Sep-17 14:00N 53°36' E 009°36'3 6.2
2017-Sep-17 13:30N 53°34' E 009°40'3 6.8
2017-Sep-17 13:00N 53°34' E 009°46'3 5.8
2017-Sep-17 12:30N 53°33' E 009°51'3 5.4
2017-Sep-17 12:00N 53°33' E 009°55'2 4.2
2017-Sep-17 11:30N 53°33' E 009°59'0 0.0
2017-Sep-17 11:00N 53°33' E 009°59'0 0.0
2017-Sep-17 10:30N 53°33' E 009°59'0 0.0
2017-Sep-17 10:00N 53°33' E 009°59'0 0.0
2017-Sep-17 09:30N 53°33' E 009°59'0 0.0
2017-Sep-17 09:00N 53°33' E 009°59'0 0.0
2017-Sep-17 08:30N 53°33' E 009°59'0 0.0
2017-Sep-17 08:00N 53°33' E 009°59'0 0.0
2017-Sep-17 07:24N 53°33' E 009°59'0 0.0
2017-Sep-17 07:00N 53°33' E 009°59'0 0.0
2017-Sep-17 06:30N 53°33' E 009°59'0 0.0
2017-Sep-17 06:00N 53°33' E 009°59'0 0.0
2017-Sep-17 05:30N 53°33' E 009°59'0 0.0
2017-Sep-17 05:00N 53°33' E 009°59'0 0.0
2017-Sep-17 04:30N 53°33' E 009°59'0 0.0
2017-Sep-17 04:00N 53°33' E 009°59'0 0.0
2017-Sep-17 03:30N 53°33' E 009°59'0 0.0
2017-Sep-17 03:00N 53°33' E 009°59'0 0.0
2017-Sep-17 02:30N 53°33' E 009°59'0 0.0
2017-Sep-17 02:00N 53°33' E 009°59'0 0.0
2017-Sep-17 01:30N 53°33' E 009°59'0 0.0
2017-Sep-17 01:00N 53°33' E 009°59'0 0.0
2017-Sep-17 00:30N 53°33' E 009°59'0 0.0
2017-Sep-17 00:00N 53°33' E 009°59'0 0.0
2017-Sep-16 23:30N 53°33' E 009°59'0 0.0
2017-Sep-16 23:00N 53°33' E 009°59'0 0.0
2017-Sep-16 22:30N 53°33' E 009°59'0 0.0
2017-Sep-16 22:00N 53°33' E 009°59'0 0.0
2017-Sep-16 21:30N 53°33' E 009°59'0 0.0
2017-Sep-16 21:00N 53°33' E 009°59'0 0.0
2017-Sep-16 20:30N 53°33' E 009°59'0 0.0
2017-Sep-16 20:00N 53°33' E 009°59'0 0.0
2017-Sep-16 19:30N 53°33' E 009°59'0 0.0
2017-Sep-16 19:00N 53°33' E 009°59'0 0.0
2017-Sep-16 18:30N 53°33' E 009°59'0 0.0
2017-Sep-16 18:00N 53°33' E 009°59'0 0.0
2017-Sep-16 17:30N 53°33' E 009°59'0 0.0
2017-Sep-16 17:00N 53°33' E 009°59'0 0.0
2017-Sep-16 16:30N 53°33' E 009°59'0 0.0
2017-Sep-16 16:00N 53°33' E 009°59'0 0.0
2017-Sep-16 15:30N 53°33' E 009°59'0 0.0
2017-Sep-16 15:00N 53°33' E 009°59'0 0.0
2017-Sep-16 14:30N 53°33' E 009°59'0 0.0
2017-Sep-16 14:00N 53°33' E 009°59'0 0.0
2017-Sep-16 13:30N 53°33' E 009°59'0 0.0
2017-Sep-16 13:00N 53°33' E 009°59'0 0.0
2017-Sep-16 12:30N 53°33' E 009°59'0 0.0
2017-Sep-16 12:00N 53°33' E 009°59'0 0.0
2017-Sep-16 11:30N 53°33' E 009°59'0 0.0
2017-Sep-16 10:54N 53°33' E 009°59'0 0.0
2017-Sep-16 10:30N 53°33' E 009°59'0 0.0
2017-Sep-16 10:00N 53°33' E 009°59'0 0.0
2017-Sep-16 09:30N 53°33' E 009°59'0 0.0
2017-Sep-16 09:00N 53°33' E 009°59'0 0.0
2017-Sep-16 08:30N 53°33' E 009°59'0 0.0
2017-Sep-16 08:00N 53°33' E 009°59'0 0.0
2017-Sep-16 07:30N 53°33' E 009°59'0 0.0
2017-Sep-16 07:00N 53°33' E 009°59'0 0.0
2017-Sep-16 06:30N 53°33' E 009°59'0 0.0
2017-Sep-16 06:00N 53°33' E 009°59'0 0.0
2017-Sep-16 05:30N 53°33' E 009°59'0 0.0
2017-Sep-16 05:00N 53°33' E 009°59'0 0.0
2017-Sep-16 04:30N 53°33' E 009°59'0 0.0
2017-Sep-16 04:00N 53°33' E 009°59'0 0.0
2017-Sep-16 03:30N 53°33' E 009°59'0 0.0
2017-Sep-16 03:00N 53°33' E 009°59'0 0.0
2017-Sep-16 02:30N 53°33' E 009°59'0 0.0
2017-Sep-16 02:00N 53°33' E 009°59'0 0.0
2017-Sep-16 01:30N 53°33' E 009°59'0 0.0
2017-Sep-16 01:00N 53°33' E 009°59'0 0.0
2017-Sep-16 00:30N 53°33' E 009°59'0 0.0
2017-Sep-16 00:00N 53°33' E 009°59'0 0.0
2017-Sep-15 23:30N 53°33' E 009°59'0 0.0
2017-Sep-15 23:00N 53°33' E 009°59'0 0.0
2017-Sep-15 22:30N 53°33' E 009°59'0 0.0
2017-Sep-15 22:00N 53°33' E 009°59'0 0.0
2017-Sep-15 21:30N 53°33' E 009°59'0 0.0
2017-Sep-15 21:00N 53°33' E 009°59'0 0.0
2017-Sep-15 20:30N 53°33' E 009°59'0 0.0
2017-Sep-15 20:00N 53°33' E 009°59'0 0.0
2017-Sep-15 19:30N 53°33' E 009°59'0 0.0
2017-Sep-15 19:00N 53°33' E 009°59'0 0.0
2017-Sep-15 18:30N 53°33' E 009°59'0 0.0
2017-Sep-15 18:00N 53°33' E 009°59'0 0.0
2017-Sep-15 17:30N 53°33' E 009°59'0 0.0
2017-Sep-15 17:00N 53°33' E 009°59'0 0.0
2017-Sep-15 16:30N 53°33' E 009°59'0 0.0
2017-Sep-15 16:00N 53°33' E 009°59'0 0.0
2017-Sep-15 15:30N 53°33' E 009°59'0 0.0
2017-Sep-15 15:00N 53°33' E 009°59'0 0.0
2017-Sep-15 14:30N 53°33' E 009°59'0 0.0
2017-Sep-15 14:00N 53°33' E 009°59'0 0.0
2017-Sep-15 13:30N 53°33' E 009°59'0 0.0
2017-Sep-15 13:00N 53°33' E 009°59'0 0.0
2017-Sep-15 12:30N 53°33' E 009°59'0 0.0
2017-Sep-15 12:00N 53°33' E 009°59'0 0.0
2017-Sep-15 11:27N 53°33' E 009°59'0 0.0
2017-Sep-15 11:00N 53°33' E 009°59'0 0.0
2017-Sep-15 10:27N 53°33' E 009°59'0 0.2
2017-Sep-15 10:01N 53°32' E 009°59'2 4.3
2017-Sep-15 09:31N 53°32' E 009°55'510.4
2017-Sep-15 09:01N 53°33' E 009°47'510.1
2017-Sep-15 08:31N 53°34' E 009°38'510.4
2017-Sep-15 08:01N 53°38' E 009°32'5 9.7
2017-Sep-15 07:30N 53°43' E 009°29'4 7.9
2017-Sep-15 07:00N 53°45' E 009°24'3 6.3
2017-Sep-15 06:30N 53°48' E 009°22'4 7.0
2017-Sep-15 06:00N 53°51' E 009°19'4 8.4
2017-Sep-15 05:31N 53°53' E 009°12'5 9.6
2017-Sep-15 05:01N 53°52' E 009°04'4 8.7
2017-Sep-15 04:30N 53°51' E 008°57'4 7.6
2017-Sep-15 04:00N 53°50' E 008°51'3 7.0
2017-Sep-15 03:30N 53°51' E 008°45'4 7.4
2017-Sep-15 03:00N 53°54' E 008°41'4 8.4
2017-Sep-15 02:30N 53°57' E 008°37'5 9.1
2017-Sep-15 02:00N 53°58' E 008°29'  
2017-Sep-12 14:54N 55°38' W 001°32'4 9.0
2017-Sep-12 14:30N 55°35' W 001°31'5 9.4
2017-Sep-12 14:00N 55°30' W 001°28'4 7.7
2017-Sep-12 13:30N 55°26' W 001°27'4 7.3
2017-Sep-12 13:00N 55°23' W 001°26'4 8.5
2017-Sep-12 12:30N 55°19' W 001°25'4 8.0
2017-Sep-12 12:00N 55°15' W 001°24'4 8.7
2017-Sep-12 11:30N 55°10' W 001°22'4 8.5
2017-Sep-12 11:00N 55°06' W 001°21'4 8.0
2017-Sep-12 10:30N 55°02' W 001°21'3 6.8
2017-Sep-12 10:00N 55°00' W 001°26'1 2.2
2017-Sep-12 09:28N 54°59' W 001°27'0 0.0
2017-Sep-12 08:58N 54°59' W 001°27'0 0.0
2017-Sep-12 08:28N 54°59' W 001°27'0 0.0
2017-Sep-12 07:58N 54°59' W 001°27'0 0.0
2017-Sep-12 07:28N 54°59' W 001°27'0 0.0
2017-Sep-12 06:58N 54°59' W 001°27'0 0.0
2017-Sep-12 06:28N 54°59' W 001°27'0 0.0
2017-Sep-12 05:49N 54°59' W 001°27'0 0.0
2017-Sep-12 05:19N 54°59' W 001°27'0 0.0
2017-Sep-12 04:37N 54°59' W 001°27'0 0.0
2017-Sep-12 04:22N 54°59' W 001°27'0 0.0
2017-Sep-12 03:52N 54°59' W 001°27'0 0.0
2017-Sep-12 03:22N 54°59' W 001°27'0 0.0
2017-Sep-12 02:55N 54°59' W 001°27'0 0.0
2017-Sep-12 02:22N 54°59' W 001°27'0 0.0
2017-Sep-12 01:55N 54°59' W 001°27'0 0.0
2017-Sep-12 01:25N 54°59' W 001°27'0 0.0
2017-Sep-12 00:55N 54°59' W 001°27'0 0.0
2017-Sep-12 00:25N 54°59' W 001°27'0 0.0
2017-Sep-11 23:55N 54°59' W 001°27'0 0.0
2017-Sep-11 23:22N 54°59' W 001°27'0 0.0
2017-Sep-11 22:55N 54°59' W 001°27'0 0.0
2017-Sep-11 22:13N 54°59' W 001°27'0 0.0
2017-Sep-11 21:58N 54°59' W 001°27'0 0.0
2017-Sep-11 21:28N 54°59' W 001°27'0 0.0
2017-Sep-11 20:58N 54°59' W 001°27'0 0.0
2017-Sep-11 20:28N 54°59' W 001°27'0 0.0
2017-Sep-11 19:58N 54°59' W 001°27'0 0.0
2017-Sep-11 19:28N 54°59' W 001°27'0 0.0
2017-Sep-11 18:58N 54°59' W 001°27'0 0.0
2017-Sep-11 18:28N 54°59' W 001°27'0 0.0
2017-Sep-11 17:58N 54°59' W 001°27'0 0.0
2017-Sep-11 17:28N 54°59' W 001°27'0 0.0
2017-Sep-11 16:49N 54°59' W 001°27'0 0.0
2017-Sep-11 16:16N 54°59' W 001°27'0 0.0
2017-Sep-11 15:58N 54°59' W 001°27'0 0.0
2017-Sep-11 15:19N 54°59' W 001°27'0 0.0
2017-Sep-11 14:49N 54°59' W 001°27'0 0.0
2017-Sep-11 14:19N 54°59' W 001°27'0 0.0
2017-Sep-11 13:49N 54°59' W 001°27'0 0.0
2017-Sep-11 13:19N 54°59' W 001°27'0 0.0
2017-Sep-11 12:52N 54°59' W 001°27'0 0.0
2017-Sep-11 12:22N 54°59' W 001°27'0 0.0
2017-Sep-11 11:52N 54°59' W 001°27'0 0.0
2017-Sep-11 11:22N 54°59' W 001°27'0 0.0
2017-Sep-11 10:52N 54°59' W 001°27'0 0.0
2017-Sep-11 10:25N 54°59' W 001°27'0 0.0
2017-Sep-11 09:55N 54°59' W 001°27'0 0.0
2017-Sep-11 09:25N 54°59' W 001°27'0 0.0
2017-Sep-11 08:58N 54°59' W 001°27'0 0.0
2017-Sep-11 08:30N 54°59' W 001°27'1 1.9
2017-Sep-11 08:00N 54°59' W 001°29'3 5.4
2017-Sep-11 07:30N 54°58' W 001°33'1 2.3
2017-Sep-11 06:51N 54°58' W 001°35'0 0.0
2017-Sep-11 06:24N 54°58' W 001°35'0 0.0
2017-Sep-11 05:53N 54°58' W 001°35'0 0.0
2017-Sep-11 05:08N 54°58' W 001°35'0 0.0
2017-Sep-11 04:54N 54°58' W 001°35'0 0.0
2017-Sep-11 04:24N 54°58' W 001°35'0 0.0
2017-Sep-11 03:50N 54°58' W 001°35'0 0.0
2017-Sep-11 03:26N 54°58' W 001°35'0 0.0
2017-Sep-11 02:56N 54°58' W 001°35'0 0.0
2017-Sep-11 02:26N 54°58' W 001°35'0 0.0
2017-Sep-11 01:56N 54°58' W 001°35'0 0.0
2017-Sep-11 01:26N 54°58' W 001°35'0 0.0
2017-Sep-11 01:00N 54°58' W 001°35'0 0.0
2017-Sep-11 00:27N 54°58' W 001°35'0 0.0
2017-Sep-10 23:56N 54°58' W 001°35'0 0.0
2017-Sep-10 23:30N 54°58' W 001°35'0 0.0
2017-Sep-10 22:59N 54°58' W 001°35'0 0.0
2017-Sep-10 22:29N 54°58' W 001°35'0 0.0
2017-Sep-10 21:59N 54°58' W 001°35'0 0.0
2017-Sep-10 21:29N 54°58' W 001°35'0 0.0
2017-Sep-10 20:59N 54°58' W 001°35'0 0.0
2017-Sep-10 20:29N 54°58' W 001°35'0 0.0
2017-Sep-10 19:47N 54°58' W 001°35'0 0.0
2017-Sep-10 19:29N 54°58' W 001°35'0 0.0
2017-Sep-10 18:59N 54°58' W 001°35'0 0.0
2017-Sep-10 18:29N 54°58' W 001°35'0 0.0
2017-Sep-10 17:59N 54°58' W 001°35'0 0.0
2017-Sep-10 17:20N 54°58' W 001°35'0 0.0
2017-Sep-10 16:59N 54°58' W 001°35'0 0.0
2017-Sep-10 16:08N 54°58' W 001°35'0 0.0
2017-Sep-10 15:54N 54°58' W 001°35'0 0.0
2017-Sep-10 15:23N 54°58' W 001°35'0 0.0
2017-Sep-10 14:53N 54°58' W 001°35'2 2.0
2017-Sep-10 14:00N 54°58' W 001°32'3 5.6
2017-Sep-10 13:31N 54°59' W 001°28'3 6.2
2017-Sep-10 13:00N 55°01' W 001°23'1 2.9
2017-Sep-10 12:30N 54°60' W 001°22'1 1.8
2017-Sep-10 12:00N 55°00' W 001°22'2 4.7
2017-Sep-10 11:30N 55°01' W 001°18'3 6.9
2017-Sep-10 11:00N 55°00' W 001°12'2 4.4
2017-Sep-10 10:30N 55°00' W 001°15'3 5.1
2017-Sep-10 10:00N 55°01' W 001°20'2 4.2
2017-Sep-10 09:30N 55°01' W 001°23'3 6.0
2017-Sep-10 09:00N 54°59' W 001°28'3 5.5
2017-Sep-10 08:30N 54°58' W 001°32'2 3.4
2017-Sep-10 07:59N 54°58' W 001°35'0 0.0
2017-Sep-10 07:29N 54°58' W 001°35'0 0.0
2017-Sep-10 07:00N 54°58' W 001°35'0 0.0
2017-Sep-10 06:29N 54°58' W 001°35'0 0.0
2017-Sep-10 05:59N 54°58' W 001°35'0 0.0
2017-Sep-10 05:29N 54°58' W 001°35'0 0.0
2017-Sep-10 04:59N 54°58' W 001°35'0 0.0
2017-Sep-10 04:29N 54°58' W 001°35'0 0.0
2017-Sep-10 03:50N 54°58' W 001°35'0 0.0
2017-Sep-10 03:29N 54°58' W 001°35'0 0.0
2017-Sep-10 02:50N 54°58' W 001°35'0 0.0
2017-Sep-10 02:20N 54°58' W 001°35'0 0.0
2017-Sep-10 01:50N 54°58' W 001°35'0 0.0
2017-Sep-10 01:23N 54°58' W 001°35'0 0.0
2017-Sep-10 00:53N 54°58' W 001°35'  

Dump ship's entire track history